createdAt,value
2022-08-07T00:00:35.893Z,80.21
2022-08-07T00:03:47.384Z,80.88
2022-08-07T00:06:52.280Z,80.61
2022-08-07T00:10:19.172Z,80.50
2022-08-07T00:13:24.038Z,80.27
2022-08-07T00:16:28.308Z,81.80
2022-08-07T00:20:02.529Z,81.41
2022-08-07T00:22:56.574Z,81.22
2022-08-07T00:26:13.158Z,79.81
2022-08-07T00:29:31.344Z,79.81
2022-08-07T00:32:34.960Z,81.35
2022-08-07T00:35:37.445Z,81.67
2022-08-07T00:38:40.322Z,80.12
2022-08-07T00:41:53.159Z,81.43
2022-08-07T00:44:56.440Z,82.38
2022-08-07T00:48:10.351Z,83.82
2022-08-07T00:51:13.845Z,81.51
2022-08-07T00:54:16.167Z,82.63
2022-08-07T00:57:25.747Z,82.32
2022-08-07T01:00:29.050Z,81.11
2022-08-07T01:03:57.392Z,80.87
2022-08-07T01:06:57.465Z,82.52
2022-08-07T01:10:06.196Z,82.47
2022-08-07T01:13:12.733Z,82.19
2022-08-07T01:16:30.511Z,84.53
2022-08-07T01:19:35.149Z,83.66
2022-08-07T01:22:53.993Z,84.17
2022-08-07T01:26:04.407Z,83.46
2022-08-07T01:29:06.983Z,84.12
2022-08-07T01:32:12.490Z,85.49
2022-08-07T01:35:19.894Z,84.04
2022-08-07T01:38:29.732Z,83.18
2022-08-07T01:41:40.890Z,83.24
2022-08-07T01:45:16.092Z,84.88
2022-08-07T01:48:30.171Z,85.90
2022-08-07T01:52:03.755Z,85.37
2022-08-07T01:55:00.731Z,85.13
2022-08-07T01:58:27.166Z,84.80
2022-08-07T02:01:59.897Z,83.61
2022-08-07T02:05:06.489Z,82.41
2022-08-07T02:08:14.175Z,83.58
2022-08-07T02:11:30.922Z,84.80
2022-08-07T02:14:49.592Z,84.71
2022-08-07T02:17:58.027Z,86.72
2022-08-07T02:21:06.200Z,85.04
2022-08-07T02:24:11.279Z,83.95
2022-08-07T02:27:22.806Z,84.76
2022-08-07T02:30:27.375Z,84.86
2022-08-07T02:33:42.310Z,86.23
2022-08-07T02:36:57.368Z,84.68
2022-08-07T02:40:30.254Z,85.00
2022-08-07T02:43:28.619Z,86.51
2022-08-07T02:46:32.249Z,86.26
2022-08-07T02:49:58.785Z,86.62
2022-08-07T02:53:10.967Z,84.80
2022-08-07T02:56:21.638Z,84.62
2022-08-07T02:59:27.685Z,84.86
2022-08-07T03:02:54.290Z,84.61
2022-08-07T03:05:59.446Z,85.38
2022-08-07T03:09:04.827Z,85.62
2022-08-07T03:12:16.125Z,85.99
2022-08-07T03:15:48.038Z,85.10
2022-08-07T03:18:52.327Z,87.37
2022-08-07T03:21:55.948Z,86.59
2022-08-07T03:25:00.260Z,86.76
2022-08-07T03:28:38.544Z,87.03
2022-08-07T03:31:43.530Z,88.29
2022-08-07T03:35:00.884Z,87.27
2022-08-07T03:38:13.821Z,86.18
2022-08-07T03:41:19.311Z,87.33
2022-08-07T03:44:42.261Z,87.84
2022-08-07T03:47:51.413Z,88.17
2022-08-07T03:50:57.928Z,87.45
2022-08-07T03:54:35.624Z,85.86
2022-08-07T03:58:08.697Z,86.08
2022-08-07T04:01:00.294Z,85.78
2022-08-07T04:04:06.811Z,85.92
2022-08-07T04:07:17.319Z,85.97
2022-08-07T04:10:22.001Z,86.53
2022-08-07T04:13:27.759Z,87.61
2022-08-07T04:16:32.553Z,87.85
2022-08-07T04:19:52.211Z,89.30
2022-08-07T04:23:01.455Z,89.93
2022-08-07T04:26:16.789Z,89.82
2022-08-07T04:29:30.475Z,89.82
2022-08-07T04:32:57.846Z,89.50
2022-08-07T04:36:02.582Z,89.59
2022-08-07T04:39:10.525Z,90.55
2022-08-07T04:42:13.578Z,89.74
2022-08-07T04:45:22.387Z,91.74
2022-08-07T04:48:51.038Z,92.20
2022-08-07T04:52:07.319Z,92.68
2022-08-07T04:58:12.863Z,92.53
2022-08-07T05:02:20.692Z,94.17
2022-08-07T05:05:52.858Z,97.98
2022-08-07T05:09:28.033Z,98.96
2022-08-07T05:12:56.092Z,100.00
2022-08-07T05:16:05.825Z,100.00
2022-08-07T05:19:12.492Z,100.00
2022-08-07T05:22:26.513Z,100.00
2022-08-07T05:26:08.869Z,100.00
2022-08-07T05:28:58.032Z,100.00
2022-08-07T05:32:04.310Z,100.00
2022-08-07T05:35:09.201Z,100.00
2022-08-07T05:38:12.651Z,100.00
2022-08-07T05:42:01.251Z,100.00
2022-08-07T05:45:14.682Z,100.00
2022-08-07T05:48:26.362Z,100.00
2022-08-07T05:51:31.794Z,100.00
2022-08-07T05:54:44.513Z,100.00
2022-08-07T05:57:58.461Z,100.00
2022-08-07T06:01:01.840Z,99.93
2022-08-07T06:04:09.196Z,97.22
2022-08-07T06:07:23.075Z,92.70
2022-08-07T06:10:38.979Z,85.85
2022-08-07T06:14:11.479Z,79.49
2022-08-07T06:17:08.553Z,76.27
2022-08-07T06:20:25.241Z,73.87
2022-08-07T06:24:37.242Z,67.84
2022-08-07T06:26:56.718Z,67.42
2022-08-07T06:30:00.713Z,67.44
2022-08-07T06:33:04.698Z,64.41
2022-08-07T06:36:13.699Z,65.50
2022-08-07T06:40:16.830Z,65.81
2022-08-07T06:42:51.525Z,58.68
2022-08-07T06:46:12.732Z,57.74
2022-08-07T06:49:16.202Z,60.27
2022-08-07T06:52:31.638Z,58.39
2022-08-07T06:56:00.365Z,58.41
2022-08-07T07:00:12.931Z,56.95
2022-08-07T07:02:54.313Z,50.31
2022-08-07T07:06:05.436Z,49.38
2022-08-07T07:09:19.893Z,50.74
2022-08-07T07:12:50.315Z,50.96
2022-08-07T07:16:01.097Z,47.16
2022-08-07T07:19:34.027Z,49.66
2022-08-07T07:22:36.236Z,46.86
2022-08-07T07:26:34.175Z,46.68
2022-08-07T07:29:39.079Z,44.94
2022-08-07T07:32:40.798Z,48.33
2022-08-07T07:36:04.899Z,48.75
2022-08-07T07:39:09.332Z,46.04
2022-08-07T07:42:13.886Z,45.84
2022-08-07T07:46:35.535Z,44.59
2022-08-07T07:48:47.046Z,43.21
2022-08-07T07:51:57.961Z,42.24
2022-08-07T07:55:03.832Z,41.76
2022-08-07T07:58:06.755Z,43.76
2022-08-07T08:02:03.683Z,44.79
2022-08-07T08:04:36.051Z,41.68
2022-08-07T08:07:42.414Z,42.29
2022-08-07T08:11:04.695Z,39.56
2022-08-07T08:14:07.064Z,42.00
2022-08-07T08:17:56.418Z,42.64
2022-08-07T08:20:34.541Z,42.04
2022-08-07T08:23:57.823Z,41.22
2022-08-07T08:27:09.807Z,40.29
2022-08-07T08:30:14.319Z,41.87
2022-08-07T08:33:25.155Z,36.08
2022-08-07T08:36:33.813Z,37.44
2022-08-07T08:39:39.588Z,39.12
2022-08-07T08:43:04.724Z,35.56
2022-08-07T08:46:11.824Z,35.71
2022-08-07T08:49:33.244Z,34.56
2022-08-07T08:52:57.708Z,35.63
2022-08-07T08:56:08.406Z,34.44
2022-08-07T08:59:16.388Z,35.35
2022-08-07T09:02:41.927Z,36.35
2022-08-07T09:06:11.477Z,37.58
2022-08-07T09:09:20.929Z,37.22
2022-08-07T09:12:54.440Z,37.27
2022-08-07T09:16:22.202Z,35.75
2022-08-07T09:19:53.707Z,38.34
2022-08-07T09:24:33.795Z,36.07
2022-08-07T09:27:22.517Z,33.94
2022-08-07T09:30:28.452Z,35.63
2022-08-07T09:33:53.059Z,35.40
2022-08-07T09:37:06.666Z,34.95
2022-08-07T09:40:12.435Z,33.84
2022-08-07T09:44:03.053Z,35.20
2022-08-07T09:47:55.115Z,33.55
2022-08-07T09:51:26.128Z,34.46
2022-08-07T09:54:39.195Z,34.03
2022-08-07T09:58:20.660Z,33.73
2022-08-07T10:01:51.391Z,34.33
2022-08-07T10:05:58.164Z,35.72
2022-08-07T10:08:56.852Z,31.74
2022-08-07T10:12:26.419Z,31.19
2022-08-07T10:15:40.284Z,38.19
2022-08-07T10:19:01.242Z,34.28
2022-08-07T10:22:17.171Z,36.68
2022-08-07T10:25:32.895Z,35.84
2022-08-07T10:29:16.686Z,32.08
2022-08-07T10:32:51.577Z,35.08
2022-08-07T10:36:11.038Z,36.59
2022-08-07T10:39:14.970Z,36.05
2022-08-07T10:42:31.141Z,33.00
2022-08-07T10:45:57.580Z,37.96
2022-08-07T10:49:14.519Z,37.19
2022-08-07T10:52:33.881Z,35.38
2022-08-07T10:55:48.523Z,38.57
2022-08-07T10:59:21.449Z,32.40
2022-08-07T11:02:34.234Z,33.66
2022-08-07T11:06:04.768Z,35.04
2022-08-07T11:10:09.677Z,32.84
2022-08-07T11:12:43.336Z,34.15
2022-08-07T11:16:08.961Z,31.56
2022-08-07T11:19:38.780Z,34.16
2022-08-07T11:23:20.769Z,35.30
2022-08-07T11:26:53.764Z,33.05
2022-08-07T11:30:18.694Z,35.52
2022-08-07T11:33:53.518Z,36.51
2022-08-07T11:37:38.604Z,37.46
2022-08-07T11:41:04.502Z,36.58
2022-08-07T11:44:19.041Z,35.72
2022-08-07T11:48:17.929Z,33.35
2022-08-07T11:51:41.270Z,33.38
2022-08-07T11:55:18.591Z,34.38
2022-08-07T11:58:33.840Z,31.95
2022-08-07T12:01:59.300Z,33.23
2022-08-07T12:05:28.555Z,33.37
2022-08-07T12:08:57.019Z,35.60
2022-08-07T12:12:12.082Z,32.60
2022-08-07T12:15:46.216Z,35.97
2022-08-07T12:19:14.682Z,32.64
2022-08-07T12:22:37.657Z,30.68
2022-08-07T12:26:21.961Z,33.64
2022-08-07T12:29:38.722Z,33.75
2022-08-07T12:32:53.187Z,33.30
2022-08-07T12:35:58.365Z,35.10
2022-08-07T12:39:41.110Z,34.84
2022-08-07T12:42:32.178Z,35.68
2022-08-07T12:45:50.247Z,37.53
2022-08-07T12:48:59.065Z,39.23
2022-08-07T12:52:20.549Z,36.13
2022-08-07T12:56:02.989Z,34.75
2022-08-07T12:59:08.255Z,33.43
2022-08-07T13:03:00.615Z,35.23
2022-08-07T13:06:27.691Z,33.34
2022-08-07T13:10:20.150Z,34.22
2022-08-07T13:13:48.946Z,35.40
2022-08-07T13:17:12.594Z,34.77
2022-08-07T13:20:27.713Z,37.42
2022-08-07T13:24:02.854Z,34.62
2022-08-07T13:27:20.494Z,34.32
2022-08-07T13:30:41.399Z,34.81
2022-08-07T13:34:32.973Z,33.56
2022-08-07T13:37:58.502Z,34.89
2022-08-07T13:41:06.861Z,34.70
2022-08-07T13:44:12.923Z,35.31
2022-08-07T13:47:42.231Z,35.82
2022-08-07T13:50:44.303Z,33.15
2022-08-07T13:54:03.051Z,33.71
2022-08-07T13:57:14.582Z,33.00
2022-08-07T14:00:39.732Z,35.10
2022-08-07T14:04:07.731Z,33.59
2022-08-07T14:07:11.937Z,33.91
2022-08-07T14:10:24.730Z,37.08
2022-08-07T14:13:33.446Z,33.29
2022-08-07T14:16:50.566Z,34.01
2022-08-07T14:20:40.933Z,34.71
2022-08-07T14:24:00.220Z,32.72
2022-08-07T14:27:00.324Z,34.35
2022-08-07T14:30:11.213Z,32.33
2022-08-07T14:33:15.900Z,33.68
2022-08-07T14:36:25.852Z,36.45
2022-08-07T14:40:18.193Z,35.77
2022-08-07T14:43:55.475Z,35.30
2022-08-07T14:46:31.475Z,36.06
2022-08-07T14:53:07.795Z,38.33
2022-08-07T14:56:14.120Z,39.25
2022-08-07T15:00:03.240Z,40.67
2022-08-07T15:02:46.978Z,39.69
2022-08-07T15:06:03.685Z,41.70
2022-08-07T15:09:58.313Z,41.00
2022-08-07T15:12:36.685Z,37.09
2022-08-07T15:15:52.561Z,35.36
2022-08-07T15:18:56.495Z,36.51
2022-08-07T15:22:07.010Z,35.89
2022-08-07T15:25:36.756Z,37.63
2022-08-07T15:32:39.545Z,35.87
2022-08-07T15:36:01.295Z,35.48
2022-08-07T15:39:10.759Z,37.93
2022-08-07T15:42:45.115Z,36.50
2022-08-07T15:45:56.613Z,36.59
2022-08-07T15:49:13.257Z,38.34
2022-08-07T15:52:30.782Z,38.03
2022-08-07T15:55:53.267Z,32.47
2022-08-07T15:59:00.364Z,33.85
2022-08-07T16:02:04.452Z,35.78
2022-08-07T16:05:20.349Z,34.59
2022-08-07T16:08:31.867Z,33.41
2022-08-07T16:11:50.141Z,30.55
2022-08-07T16:15:07.637Z,32.14
2022-08-07T16:18:50.052Z,29.82
2022-08-07T16:22:06.620Z,28.47
2022-08-07T16:25:23.438Z,29.29
2022-08-07T16:30:06.976Z,28.33
2022-08-07T16:32:35.904Z,30.34
2022-08-07T16:35:58.509Z,31.97
2022-08-07T16:39:33.688Z,32.11
2022-08-07T16:43:05.233Z,34.27
2022-08-07T16:47:06.681Z,32.93
2022-08-07T16:50:39.322Z,33.15
2022-08-07T16:54:32.513Z,34.88
2022-08-07T16:58:02.597Z,34.00
2022-08-07T17:01:34.284Z,36.23
2022-08-07T17:04:57.651Z,37.59
2022-08-07T17:08:03.375Z,38.21
2022-08-07T17:11:21.989Z,39.74
2022-08-07T17:14:53.145Z,40.31
2022-08-07T17:18:16.115Z,39.64
2022-08-07T17:21:23.884Z,39.25
2022-08-07T17:25:00.020Z,40.03
2022-08-07T17:28:38.449Z,41.95
2022-08-07T17:32:02.842Z,43.23
2022-08-07T17:35:49.663Z,43.85
2022-08-07T17:39:02.278Z,45.30
2022-08-07T17:42:31.916Z,45.11
2022-08-07T17:45:42.301Z,45.78
2022-08-07T17:49:00.038Z,47.05
2022-08-07T17:52:40.031Z,47.29
2022-08-07T17:56:06.482Z,48.86
2022-08-07T17:59:26.217Z,48.50
2022-08-07T18:02:53.845Z,49.09
2022-08-07T18:06:06.451Z,49.54
2022-08-07T18:09:48.284Z,51.12
2022-08-07T18:12:55.289Z,51.46
2022-08-07T18:16:36.222Z,52.51
2022-08-07T18:21:07.604Z,52.51
2022-08-07T18:23:50.587Z,53.21
2022-08-07T18:27:38.906Z,54.53
2022-08-07T18:31:25.102Z,55.20
2022-08-07T18:35:00.636Z,55.06
2022-08-07T18:38:58.400Z,56.19
2022-08-07T18:42:41.633Z,56.77
2022-08-07T18:46:24.472Z,56.40
2022-08-07T18:50:35.071Z,56.95
2022-08-07T18:53:22.628Z,57.74
2022-08-07T18:56:58.274Z,58.12
2022-08-07T19:00:33.046Z,59.60
2022-08-07T19:04:17.242Z,60.76
2022-08-07T19:07:51.620Z,61.65
2022-08-07T19:11:35.114Z,61.76
2022-08-07T19:14:58.753Z,62.49
2022-08-07T19:18:34.807Z,63.00
2022-08-07T19:21:56.173Z,63.15
2022-08-07T19:26:21.741Z,63.15
2022-08-07T19:30:56.495Z,63.55
2022-08-07T19:32:18.599Z,64.51
2022-08-07T19:35:33.294Z,65.05
2022-08-07T19:38:52.595Z,65.48
2022-08-07T19:42:08.398Z,66.25
2022-08-07T19:46:05.515Z,65.15
2022-08-07T19:49:00.013Z,65.86
2022-08-07T19:52:03.788Z,66.00
2022-08-07T19:55:17.181Z,65.62
2022-08-07T19:58:52.300Z,68.75
2022-08-07T20:02:51.692Z,67.69
2022-08-07T20:06:15.605Z,67.98
2022-08-07T20:10:35.472Z,68.50
2022-08-07T20:12:55.499Z,68.67
2022-08-07T20:15:58.424Z,68.89
2022-08-07T20:19:04.398Z,69.64
2022-08-07T20:22:14.398Z,69.75
2022-08-07T20:25:22.007Z,69.50
2022-08-07T20:28:30.789Z,69.73
2022-08-07T20:31:33.565Z,70.64
2022-08-07T20:34:50.826Z,69.93
2022-08-07T20:37:58.915Z,71.13
2022-08-07T20:45:32.123Z,70.28
2022-08-07T20:48:32.375Z,71.41
2022-08-07T20:51:40.361Z,71.58
2022-08-07T20:54:55.632Z,71.90
2022-08-07T20:58:09.093Z,72.22
2022-08-07T21:01:22.325Z,71.74
2022-08-07T21:04:30.318Z,71.84
2022-08-07T21:07:36.530Z,71.87
2022-08-07T21:10:40.023Z,72.69
2022-08-07T21:14:16.354Z,74.79
2022-08-07T21:18:03.361Z,72.92
2022-08-07T21:20:56.455Z,72.55
2022-08-07T21:24:07.937Z,72.19
2022-08-07T21:27:27.146Z,73.93
2022-08-07T21:32:42.785Z,74.97
2022-08-07T21:35:10.804Z,74.24
2022-08-07T21:38:44.396Z,73.90
2022-08-07T21:42:41.888Z,75.36
2022-08-07T21:46:07.763Z,74.42
2022-08-07T21:49:26.958Z,75.46
2022-08-07T21:52:58.701Z,77.45
2022-08-07T21:56:47.828Z,76.37
2022-08-07T22:00:06.262Z,75.12
2022-08-07T22:03:31.469Z,74.80
2022-08-07T22:06:45.199Z,75.05
2022-08-07T22:09:55.413Z,75.30
2022-08-07T22:13:00.872Z,75.47
2022-08-07T22:16:42.458Z,75.04
2022-08-07T22:19:37.508Z,75.77
2022-08-07T22:22:47.052Z,76.08
2022-08-07T22:26:28.947Z,77.99
2022-08-07T22:29:51.929Z,77.78
2022-08-07T22:33:12.633Z,77.38
2022-08-07T22:36:42.842Z,77.24
2022-08-07T22:39:57.764Z,77.92
2022-08-07T22:43:16.061Z,78.30
2022-08-07T22:47:04.119Z,77.72
2022-08-07T22:50:45.330Z,77.37
2022-08-07T22:54:07.644Z,78.35
2022-08-07T22:57:48.315Z,77.94
2022-08-07T23:01:15.716Z,77.20
2022-08-07T23:04:57.073Z,77.95
2022-08-07T23:08:46.123Z,78.85
2022-08-07T23:12:00.771Z,78.51
2022-08-07T23:16:06.451Z,79.53
2022-08-07T23:19:51.725Z,78.07
2022-08-07T23:22:59.907Z,78.19
2022-08-07T23:26:19.113Z,78.42
2022-08-07T23:30:38.576Z,78.62
2022-08-07T23:34:36.005Z,78.81
2022-08-07T23:37:20.274Z,78.81
2022-08-07T23:40:49.374Z,78.28
2022-08-07T23:44:01.116Z,78.95
2022-08-07T23:47:18.438Z,78.55
2022-08-07T23:50:45.249Z,78.75
2022-08-07T23:54:19.932Z,80.15
2022-08-07T23:57:58.539Z,80.03
